Time;durP1;ratioP1;P1;durP2;ratioP2;P2;SDS_P1;SDS_P2;PMS_P1;PMS_P2;Temp;Humidity;BMP_temperature;BMP_pressure;BME280_temperature;BME280_humidity;BME280_pressure;Samples;Min_cycle;Max_cycle;Signal;HPM_P1;HPM_P2
2021/08/27 00:00:56;;;;;;;5.57;2.92;;;14.20;90.80;;;;;;5012905;28;20053;-67
2021/08/27 00:03:22;;;;;;;6.20;3.00;;;14.20;90.80;;;;;;5013144;28;20397;-67
2021/08/27 00:05:48;;;;;;;6.22;2.88;;;14.20;90.90;;;;;;5012067;28;20026;-67
2021/08/27 00:08:15;;;;;;;4.05;3.05;;;14.10;90.90;;;;;;5012367;28;20072;-67
2021/08/27 00:10:40;;;;;;;3.45;2.50;;;14.10;91.10;;;;;;5011467;28;20431;-67
2021/08/27 00:13:07;;;;;;;6.85;3.10;;;14.20;91.20;;;;;;5010675;28;20049;-67
2021/08/27 00:15:33;;;;;;;3.47;2.78;;;14.20;91.20;;;;;;5011786;28;20022;-67
2021/08/27 00:17:59;;;;;;;4.10;2.70;;;14.20;91.20;;;;;;5011178;28;20034;-67
2021/08/27 00:20:24;;;;;;;3.78;2.80;;;14.20;91.20;;;;;;5013003;28;20080;-67
2021/08/27 00:22:50;;;;;;;3.92;2.53;;;14.20;91.20;;;;;;5012181;28;20405;-67
2021/08/27 00:25:16;;;;;;;4.88;3.10;;;14.10;91.20;;;;;;5009841;28;20029;-68
2021/08/27 00:27:41;;;;;;;5.15;2.60;;;14.10;91.30;;;;;;5011885;28;20034;-68
2021/08/27 00:30:08;;;;;;;4.72;2.80;;;14.10;91.30;;;;;;5012191;28;20104;-67
2021/08/27 00:32:33;;;;;;;3.92;3.00;;;14.10;91.40;;;;;;5012488;28;20655;-67
2021/08/27 00:35:03;;;;;;;4.45;2.80;;;14.00;91.40;;;;;;5011666;28;20022;-67
2021/08/27 00:37:29;;;;;;;4.97;3.08;;;14.00;91.50;;;;;;5011715;28;20014;-67
2021/08/27 00:39:54;;;;;;;4.28;2.70;;;14.00;91.50;;;;;;5012298;28;20022;-67
2021/08/27 00:42:20;;;;;;;3.55;2.60;;;14.00;91.80;;;;;;5012229;28;20018;-67
2021/08/27 00:44:46;;;;;;;4.15;3.10;;;14.00;91.60;;;;;;5011279;28;20050;-67
2021/08/27 00:47:12;;;;;;;5.97;3.30;;;14.00;91.70;;;;;;5011832;28;20026;-67
2021/08/27 00:49:37;;;;;;;4.45;3.00;;;14.00;91.70;;;;;;5012229;28;20030;-67
2021/08/27 00:52:05;;;;;;;3.65;2.97;;;14.00;91.70;;;;;;5010760;28;20026;-67
2021/08/27 00:54:31;;;;;;;3.67;3.10;;;14.00;91.70;;;;;;5011490;28;20022;-67
2021/08/27 00:56:56;;;;;;;4.43;2.92;;;14.00;91.80;;;;;;5011006;28;20030;-67
2021/08/27 00:59:22;;;;;;;4.60;3.28;;;14.00;91.80;;;;;;5012171;28;20026;-68
2021/08/27 01:01:48;;;;;;;4.82;3.60;;;14.00;91.80;;;;;;5011709;28;20034;-67
2021/08/27 01:04:14;;;;;;;3.75;3.10;;;14.00;91.80;;;;;;5012188;28;20109;-67
2021/08/27 01:06:49;;;;;;;5.57;3.40;;;13.90;91.80;;;;;;5010364;28;20037;-67
2021/08/27 01:09:25;;;;;;;3.85;3.10;;;13.90;91.90;;;;;;5011033;28;20474;-67
2021/08/27 01:12:01;;;;;;;5.15;3.05;;;13.90;92.00;;;;;;5011917;28;20022;-67
2021/08/27 01:14:36;;;;;;;2.95;2.70;;;13.80;92.00;;;;;;5008482;28;20018;-67
2021/08/27 01:17:11;;;;;;;4.13;2.72;;;13.80;92.00;;;;;;5011053;28;20029;-67
2021/08/27 01:19:48;;;;;;;4.22;3.30;;;13.80;92.10;;;;;;5011199;28;20636;-67
2021/08/27 01:22:35;;;;;;;3.33;2.60;;;13.80;92.30;;;;;;5011670;28;20025;-67
2021/08/27 01:25:01;;;;;;;5.15;3.38;;;13.80;92.30;;;;;;5009884;28;20025;-67
2021/08/27 01:27:27;;;;;;;2.97;2.75;;;13.70;92.20;;;;;;5002038;28;20034;-67
2021/08/27 01:30:14;;;;;;;5.68;3.00;;;13.70;92.20;;;;;;4995299;28;20032;-67
2021/08/27 01:33:16;;;;;;;8.52;2.90;;;13.80;92.40;;;;;;4993986;28;20417;-67
2021/08/27 01:35:47;;;;;;;2.70;1.95;;;13.70;92.50;;;;;;5010041;28;20108;-67
2021/08/27 01:38:15;;;;;;;5.05;2.80;;;13.70;92.20;;;;;;5010972;28;20665;-67
2021/08/27 01:40:45;;;;;;;4.32;2.40;;;13.60;92.20;;;;;;5011496;28;20022;-67
2021/08/27 01:43:13;;;;;;;3.22;1.92;;;13.60;92.40;;;;;;5010982;28;20026;-67
2021/08/27 01:45:41;;;;;;;3.15;1.88;;;13.60;92.30;;;;;;5010517;28;20135;-67
2021/08/27 01:48:07;;;;;;;2.80;2.00;;;13.50;92.30;;;;;;5010707;28;20026;-67
2021/08/27 01:50:34;;;;;;;4.80;2.08;;;13.50;92.40;;;;;;5011333;28;20018;-67
2021/08/27 01:53:01;;;;;;;3.17;1.98;;;13.50;92.50;;;;;;5011074;28;20382;-67
2021/08/27 01:55:27;;;;;;;3.38;2.10;;;13.50;92.50;;;;;;5009667;28;20025;-67
2021/08/27 01:57:54;;;;;;;3.92;2.03;;;13.50;92.50;;;;;;5010659;28;20030;-67
2021/08/27 02:00:21;;;;;;;4.82;2.10;;;13.50;92.60;;;;;;4991507;28;20030;-67
2021/08/27 02:02:49;;;;;;;1.98;1.75;;;13.50;92.60;;;;;;5003408;28;20125;-67
2021/08/27 02:05:16;;;;;;;3.50;2.40;;;13.50;92.70;;;;;;5009957;28;20034;-67
2021/08/27 02:07:44;;;;;;;2.72;1.88;;;13.50;92.60;;;;;;5010440;28;20033;-67
2021/08/27 02:10:10;;;;;;;5.63;2.38;;;13.50;92.70;;;;;;5009784;28;20026;-67
2021/08/27 02:12:36;;;;;;;4.57;2.75;;;13.50;92.70;;;;;;5008397;28;20027;-67
2021/08/27 02:15:03;;;;;;;3.47;2.60;;;13.50;92.70;;;;;;5012386;28;20056;-67
2021/08/27 02:17:29;;;;;;;3.95;2.47;;;13.50;92.60;;;;;;5010527;28;20046;-67
2021/08/27 02:19:55;;;;;;;4.10;2.70;;;13.40;92.60;;;;;;5009523;28;20069;-68
2021/08/27 02:22:24;;;;;;;4.32;2.40;;;13.40;92.70;;;;;;5014414;28;20050;-67
2021/08/27 02:25:06;;;;;;;3.63;2.53;;;13.40;92.70;;;;;;5008383;28;20401;-67
2021/08/27 02:27:34;;;;;;;3.67;2.17;;;13.30;92.90;;;;;;5013812;28;20084;-67
2021/08/27 02:30:01;;;;;;;3.75;2.65;;;13.30;92.80;;;;;;5014175;28;20033;-67
2021/08/27 02:32:28;;;;;;;3.10;2.33;;;13.30;92.80;;;;;;5018998;28;20450;-67
2021/08/27 02:35:00;;;;;;;3.67;2.47;;;13.30;92.90;;;;;;5015310;28;20020;-67
2021/08/27 02:37:28;;;;;;;4.35;2.35;;;13.30;92.80;;;;;;5014750;28;20053;-67
2021/08/27 02:39:54;;;;;;;4.78;2.38;;;13.30;92.80;;;;;;5014029;28;20482;-67
2021/08/27 02:42:20;;;;;;;4.72;2.50;;;13.20;92.80;;;;;;5029560;28;20117;-67
2021/08/27 02:44:46;;;;;;;4.30;2.15;;;13.20;92.90;;;;;;5026047;28;20095;-67
2021/08/27 02:47:13;;;;;;;4.15;2.25;;;13.20;93.00;;;;;;5014606;28;20477;-67
2021/08/27 02:49:39;;;;;;;2.92;2.20;;;13.20;92.90;;;;;;5014050;28;20029;-67
2021/08/27 02:52:07;;;;;;;2.47;2.20;;;13.20;93.00;;;;;;5014503;28;20101;-67
2021/08/27 02:54:39;;;;;;;4.55;2.30;;;13.20;93.00;;;;;;5029188;28;20025;-67
2021/08/27 02:57:06;;;;;;;4.00;2.28;;;13.20;93.10;;;;;;5033935;28;20034;-67
2021/08/27 02:59:33;;;;;;;3.00;2.08;;;13.20;93.10;;;;;;5017712;28;20513;-67
2021/08/27 03:02:02;;;;;;;3.78;2.38;;;13.20;93.10;;;;;;5014386;28;20038;-67
2021/08/27 03:04:47;;;;;;;6.72;2.30;;;13.20;93.10;;;;;;5013730;28;20432;-67
2021/08/27 03:07:15;;;;;;;3.75;2.25;;;13.20;93.10;;;;;;5012853;28;20116;-67
2021/08/27 03:09:48;;;;;;;2.35;1.90;;;13.10;93.10;;;;;;5013330;28;20033;-67
2021/08/27 03:12:18;;;;;;;4.45;2.50;;;13.20;93.10;;;;;;5014014;28;20026;-68
2021/08/27 03:14:55;;;;;;;8.95;2.50;;;13.10;93.10;;;;;;5012629;28;20021;-67
2021/08/27 03:17:23;;;;;;;5.75;2.30;;;13.10;93.20;;;;;;5013802;28;20366;-67
2021/08/27 03:20:22;;;;;;;4.10;2.50;;;13.10;93.10;;;;;;5013793;28;20462;-67
2021/08/27 03:22:54;;;;;;;4.97;2.55;;;13.10;93.30;;;;;;5012607;28;20041;-67
2021/08/27 03:25:22;;;;;;;3.80;2.72;;;13.10;93.20;;;;;;5009032;28;20046;-67
2021/08/27 03:27:58;;;;;;;4.75;2.70;;;13.10;93.20;;;;;;5015328;28;20030;-67
2021/08/27 03:30:27;;;;;;;3.17;2.28;;;13.10;93.30;;;;;;5013348;28;20033;-67
2021/08/27 03:33:00;;;;;;;4.75;2.53;;;13.10;93.20;;;;;;5012951;28;20050;-67
2021/08/27 03:35:27;;;;;;;4.25;2.30;;;13.20;93.30;;;;;;5011853;28;20104;-67
2021/08/27 03:37:54;;;;;;;3.83;2.78;;;13.20;93.40;;;;;;5013249;28;20384;-67
2021/08/27 03:40:21;;;;;;;3.47;2.40;;;13.20;93.30;;;;;;5013642;28;20105;-67
2021/08/27 03:42:47;;;;;;;4.20;2.10;;;13.20;93.30;;;;;;5011754;28;20033;-67
2021/08/27 03:45:17;;;;;;;4.28;2.38;;;13.20;93.30;;;;;;5012016;28;20022;-67
2021/08/27 03:47:44;;;;;;;3.53;2.38;;;13.20;93.30;;;;;;5013240;28;20439;-67
2021/08/27 03:50:12;;;;;;;4.35;2.40;;;13.10;93.20;;;;;;5012960;28;20544;-68
2021/08/27 03:52:41;;;;;;;4.25;2.42;;;13.20;93.30;;;;;;5012942;28;20420;-67
2021/08/27 03:55:10;;;;;;;6.78;2.50;;;13.20;93.40;;;;;;5012170;28;20477;-67
2021/08/27 03:57:37;;;;;;;3.83;2.45;;;13.20;93.40;;;;;;5012795;28;20100;-67
2021/08/27 04:00:04;;;;;;;3.00;2.22;;;13.20;93.40;;;;;;5021809;28;20025;-67
2021/08/27 04:02:31;;;;;;;2.35;2.15;;;13.20;93.40;;;;;;5026883;28;20076;-67
2021/08/27 04:05:14;;;;;;;3.22;2.50;;;13.30;93.40;;;;;;5011930;28;20026;-67
2021/08/27 04:07:41;;;;;;;5.60;2.53;;;13.30;93.50;;;;;;5012693;28;20049;-67
2021/08/27 04:10:08;;;;;;;3.78;2.80;;;13.30;93.30;;;;;;5012389;28;20030;-67
2021/08/27 04:12:35;;;;;;;3.40;2.85;;;13.30;93.30;;;;;;5012878;28;20030;-67
2021/08/27 04:15:00;;;;;;;4.13;3.05;;;13.30;93.40;;;;;;5011503;28;20018;-67
2021/08/27 04:17:26;;;;;;;5.43;3.03;;;13.30;93.40;;;;;;5012558;28;20022;-67
2021/08/27 04:19:52;;;;;;;3.42;3.13;;;13.30;93.50;;;;;;5012675;28;20025;-68
2021/08/27 04:22:17;;;;;;;4.28;3.03;;;13.30;93.40;;;;;;5008850;28;20024;-66
2021/08/27 04:24:43;;;;;;;3.67;3.38;;;13.30;93.40;;;;;;5009309;28;20500;-67
2021/08/27 04:27:08;;;;;;;5.35;3.08;;;13.30;93.50;;;;;;5011010;28;20022;-67
2021/08/27 04:29:34;;;;;;;3.75;3.35;;;13.30;93.50;;;;;;5012138;28;20040;-67
2021/08/27 04:32:01;;;;;;;5.10;3.38;;;13.40;93.50;;;;;;5012801;28;20109;-67
2021/08/27 04:34:26;;;;;;;7.55;3.78;;;13.40;93.50;;;;;;5012221;28;20049;-67
2021/08/27 04:36:52;;;;;;;8.65;4.53;;;13.40;93.60;;;;;;5011546;28;20463;-67
2021/08/27 04:39:17;;;;;;;7.18;4.03;;;13.40;93.50;;;;;;5012162;28;20046;-67
2021/08/27 04:41:43;;;;;;;5.95;4.10;;;13.40;93.50;;;;;;5011108;28;20045;-67
2021/08/27 04:44:08;;;;;;;7.45;4.47;;;13.40;93.50;;;;;;5010773;28;20033;-67
2021/08/27 04:46:34;;;;;;;6.90;4.57;;;13.40;93.70;;;;;;5011281;28;20046;-67
2021/08/27 04:49:00;;;;;;;6.40;4.85;;;13.40;93.50;;;;;;5011947;28;20063;-67
2021/08/27 04:51:25;;;;;;;9.02;4.35;;;13.40;93.50;;;;;;5010988;28;20029;-67
2021/08/27 04:53:51;;;;;;;6.80;4.90;;;13.40;93.50;;;;;;5010045;28;20021;-67
2021/08/27 04:56:17;;;;;;;6.45;4.80;;;13.30;93.40;;;;;;5015428;28;20111;-67
2021/08/27 04:58:43;;;;;;;7.25;5.10;;;13.30;93.40;;;;;;5010671;28;20067;-67
2021/08/27 05:01:08;;;;;;;8.07;4.97;;;13.30;93.40;;;;;;5029737;28;20025;-68
2021/08/27 05:03:35;;;;;;;8.18;4.63;;;13.30;93.50;;;;;;5017410;28;20378;-67
2021/08/27 05:06:01;;;;;;;7.43;5.18;;;13.20;93.50;;;;;;5010352;28;20029;-68
2021/08/27 05:08:26;;;;;;;7.07;4.85;;;13.20;93.50;;;;;;5010123;28;20426;-67
2021/08/27 05:10:52;;;;;;;9.20;4.70;;;13.20;93.50;;;;;;5011568;28;20109;-67
2021/08/27 05:13:18;;;;;;;8.13;4.63;;;13.20;93.50;;;;;;5011371;28;20021;-68
2021/08/27 05:15:43;;;;;;;6.80;4.93;;;13.20;93.50;;;;;;5010648;28;20058;-67
2021/08/27 05:18:09;;;;;;;6.10;4.82;;;13.10;93.50;;;;;;5011084;28;20109;-67
2021/08/27 05:20:34;;;;;;;6.75;5.05;;;13.20;93.50;;;;;;5011327;28;20025;-67
2021/08/27 05:23:00;;;;;;;5.75;4.75;;;13.10;93.50;;;;;;5011466;28;20038;-67
2021/08/27 05:25:26;;;;;;;6.47;5.15;;;13.10;93.50;;;;;;5056895;22;20128;-67
2021/08/27 05:27:52;;;;;;;9.18;5.53;;;13.20;93.60;;;;;;5070166;28;20078;-67
2021/08/27 05:30:18;;;;;;;8.10;5.55;;;13.20;93.50;;;;;;5062403;28;20055;-67
2021/08/27 05:32:48;;;;;;;9.75;7.00;;;13.10;93.50;;;;;;5064454;28;20104;-67
2021/08/27 05:35:15;;;;;;;7.03;5.30;;;13.10;93.50;;;;;;5050024;28;20021;-67
2021/08/27 05:37:41;;;;;;;5.78;4.75;;;13.10;93.60;;;;;;5050822;28;20057;-67
2021/08/27 05:40:08;;;;;;;11.02;5.22;;;13.20;93.60;;;;;;5031057;28;20018;-67
2021/08/27 05:42:37;;;;;;;6.03;4.88;;;13.20;93.60;;;;;;5068442;28;20093;-67
2021/08/27 05:45:04;;;;;;;10.35;6.13;;;13.20;93.60;;;;;;5070025;28;20099;-67
2021/08/27 05:47:30;;;;;;;10.23;5.40;;;13.20;93.60;;;;;;5052451;28;20029;-67
2021/08/27 05:49:57;;;;;;;5.63;4.90;;;13.30;93.50;;;;;;5050506;28;20025;-67
2021/08/27 05:52:23;;;;;;;7.90;5.28;;;13.30;93.50;;;;;;5050625;28;20035;-67
2021/08/27 05:54:48;;;;;;;8.18;5.38;;;13.30;93.50;;;;;;5054448;28;20021;-67
2021/08/27 05:57:14;;;;;;;6.00;4.88;;;13.30;93.60;;;;;;5054895;28;20028;-67
2021/08/27 05:59:39;;;;;;;6.07;4.43;;;13.30;93.60;;;;;;5048984;28;20033;-67
2021/08/27 06:02:05;;;;;;;5.75;4.95;;;13.40;93.70;;;;;;5051326;28;20083;-68
2021/08/27 06:04:30;;;;;;;5.95;5.13;;;13.40;93.60;;;;;;5049881;28;20033;-67
2021/08/27 06:06:57;;;;;;;5.78;4.82;;;13.50;93.60;;;;;;5051976;28;20029;-67
2021/08/27 06:09:23;;;;;;;8.10;4.97;;;13.60;93.60;;;;;;5050542;28;20052;-67
2021/08/27 06:11:49;;;;;;;8.68;5.07;;;13.60;93.50;;;;;;5049867;28;20436;-67
2021/08/27 06:14:14;;;;;;;6.05;4.28;;;13.60;93.50;;;;;;5047876;28;20021;-67
2021/08/27 06:16:40;;;;;;;8.05;4.85;;;13.60;93.50;;;;;;5049107;28;20024;-67
2021/08/27 06:19:05;;;;;;;9.18;4.82;;;13.60;93.30;;;;;;5049961;28;20392;-67
2021/08/27 06:21:32;;;;;;;6.45;4.30;;;13.60;93.30;;;;;;5050193;28;20060;-67
2021/08/27 06:23:58;;;;;;;5.90;4.63;;;13.60;93.40;;;;;;5049926;28;20032;-67
2021/08/27 06:26:23;;;;;;;7.85;5.30;;;13.60;93.40;;;;;;5047993;28;20098;-68
2021/08/27 06:28:49;;;;;;;7.32;5.15;;;13.50;93.40;;;;;;5049012;28;20102;-67
2021/08/27 06:31:15;;;;;;;10.10;5.55;;;13.50;93.30;;;;;;5050107;28;20068;-67
2021/08/27 06:33:41;;;;;;;9.27;4.53;;;13.50;93.30;;;;;;5049720;28;20094;-67
2021/08/27 06:36:06;;;;;;;11.82;5.50;;;13.40;93.30;;;;;;5049476;28;20029;-67
2021/08/27 06:38:32;;;;;;;6.38;4.10;;;13.40;93.40;;;;;;5049663;28;20025;-67
2021/08/27 06:41:00;;;;;;;6.30;4.13;;;13.50;93.30;;;;;;5049783;28;20029;-67
2021/08/27 06:43:27;;;;;;;6.38;3.88;;;13.50;93.50;;;;;;5050211;28;20163;-67
2021/08/27 06:45:54;;;;;;;5.03;3.47;;;13.50;93.30;;;;;;5048846;28;20032;-67
2021/08/27 06:48:20;;;;;;;4.65;3.90;;;13.60;93.40;;;;;;5049779;28;20029;-67
2021/08/27 06:50:46;;;;;;;4.45;3.85;;;13.60;93.30;;;;;;5050041;28;20455;-67
2021/08/27 06:53:12;;;;;;;4.75;3.95;;;13.60;93.20;;;;;;5049795;28;20147;-67
2021/08/27 06:55:38;;;;;;;6.10;3.80;;;13.60;93.10;;;;;;5047596;28;20023;-67
2021/08/27 06:58:03;;;;;;;5.50;3.80;;;13.60;93.10;;;;;;5049661;28;20108;-67
2021/08/27 07:00:30;;;;;;;4.88;4.20;;;13.60;93.10;;;;;;5049698;28;20064;-67
2021/08/27 07:02:56;;;;;;;7.50;3.60;;;13.60;93.30;;;;;;5049882;28;20116;-67
2021/08/27 07:05:21;;;;;;;4.50;3.58;;;13.60;93.30;;;;;;5049262;28;20101;-67
2021/08/27 07:07:48;;;;;;;5.93;3.83;;;13.70;93.30;;;;;;5050386;28;20079;-67
2021/08/27 07:10:14;;;;;;;4.85;3.67;;;13.70;93.10;;;;;;5053119;28;20028;-67
2021/08/27 07:12:40;;;;;;;4.25;3.03;;;13.70;93.00;;;;;;5053453;28;20112;-67
2021/08/27 07:15:07;;;;;;;3.20;2.70;;;13.80;93.00;;;;;;5052137;28;20092;-67
2021/08/27 07:17:32;;;;;;;5.03;3.00;;;13.90;93.00;;;;;;5052274;28;20029;-67
2021/08/27 07:19:58;;;;;;;3.15;2.83;;;14.10;92.90;;;;;;5053434;28;20029;-67
2021/08/27 07:22:24;;;;;;;6.40;2.90;;;14.30;92.80;;;;;;5053230;28;20108;-67
2021/08/27 07:24:50;;;;;;;3.92;2.58;;;14.70;92.40;;;;;;5051996;28;20090;-67
2021/08/27 07:27:15;;;;;;;3.88;2.42;;;15.20;91.90;;;;;;5054431;28;20025;-67
2021/08/27 07:29:41;;;;;;;2.00;1.80;;;15.80;91.20;;;;;;5052845;28;20040;-67
2021/08/27 07:32:11;;;;;;;3.35;1.88;;;16.30;90.50;;;;;;5052993;28;20484;-67
2021/08/27 07:34:38;;;;;;;3.80;2.10;;;16.90;90.10;;;;;;5052202;28;20025;-67
2021/08/27 07:37:04;;;;;;;3.50;1.80;;;17.50;89.00;;;;;;5053036;28;20025;-67
2021/08/27 07:39:29;;;;;;;3.10;1.50;;;17.30;88.50;;;;;;5052771;28;20489;-67
2021/08/27 07:41:55;;;;;;;3.42;1.70;;;17.00;89.20;;;;;;5052967;28;20388;-67
2021/08/27 07:44:21;;;;;;;4.97;1.98;;;16.60;89.80;;;;;;5059014;28;20040;-67
2021/08/27 07:46:46;;;;;;;3.75;1.70;;;16.40;90.10;;;;;;5053890;28;20033;-67
2021/08/27 07:49:12;;;;;;;2.17;1.58;;;16.20;90.20;;;;;;5052806;28;20052;-67
2021/08/27 07:51:37;;;;;;;3.15;1.70;;;16.00;90.50;;;;;;5052915;28;20028;-67
2021/08/27 07:54:03;;;;;;;3.55;2.15;;;15.80;90.50;;;;;;5052460;28;20488;-67
2021/08/27 07:56:28;;;;;;;4.10;2.72;;;15.80;90.80;;;;;;5051312;28;20083;-67
2021/08/27 07:58:54;;;;;;;3.30;2.05;;;15.80;90.70;;;;;;5051968;28;20035;-67
2021/08/27 08:01:20;;;;;;;7.15;1.40;;;15.80;90.70;;;;;;5052639;28;20033;-67
2021/08/27 08:03:45;;;;;;;4.60;1.60;;;16.30;90.10;;;;;;5052051;28;20489;-67
2021/08/27 08:06:11;;;;;;;3.80;1.50;;;17.10;88.80;;;;;;5051585;28;20029;-67
2021/08/27 08:08:37;;;;;;;5.13;1.50;;;17.40;87.00;;;;;;5052226;28;20079;-67
2021/08/27 08:11:02;;;;;;;2.08;1.42;;;18.50;85.30;;;;;;5052395;28;20103;-68
2021/08/27 08:13:28;;;;;;;2.42;1.10;;;19.50;83.10;;;;;;5047452;28;20021;-67
2021/08/27 08:15:54;;;;;;;3.65;1.23;;;20.30;81.20;;;;;;5049530;28;20032;-68
2021/08/27 08:18:19;;;;;;;3.17;1.17;;;20.40;80.70;;;;;;5050060;28;20409;-68
2021/08/27 08:20:45;;;;;;;2.75;1.40;;;21.00;79.30;;;;;;5052182;28;20025;-68
2021/08/27 08:23:11;;;;;;;3.95;1.35;;;20.60;79.50;;;;;;5052195;28;20507;-68
2021/08/27 08:25:36;;;;;;;15.40;8.75;;;21.10;79.50;;;;;;5062203;28;20165;-68
2021/08/27 08:28:07;;;;;;;2.63;1.80;;;20.80;79.10;;;;;;5071806;28;20034;-68
2021/08/27 08:30:32;;;;;;;4.53;1.02;;;21.90;77.20;;;;;;5071998;28;20033;-68
2021/08/27 08:32:58;;;;;;;2.45;1.17;;;22.00;76.30;;;;;;5071905;28;20025;-68
2021/08/27 08:35:23;;;;;;;4.07;0.85;;;22.50;75.00;;;;;;5071227;28;20056;-68
2021/08/27 08:37:49;;;;;;;3.33;0.98;;;22.00;75.50;;;;;;5053174;28;20028;-68
2021/08/27 08:40:15;;;;;;;2.95;1.15;;;21.10;77.20;;;;;;5051655;28;20025;-68
2021/08/27 08:42:41;;;;;;;5.18;1.20;;;20.40;78.00;;;;;;5050416;28;20025;-68
2021/08/27 08:45:07;;;;;;;2.33;1.20;;;19.70;79.20;;;;;;5049669;28;20029;-68
2021/08/27 08:47:37;;;;;;;48.47;34.90;;;19.20;80.10;;;;;;5067054;28;20039;-67
2021/08/27 08:50:03;;;;;;;3.58;1.80;;;18.70;81.20;;;;;;5050095;28;20035;-67
2021/08/27 08:52:30;;;;;;;4.47;1.45;;;18.30;81.80;;;;;;5051683;28;20025;-68
2021/08/27 08:54:57;;;;;;;2.63;1.10;;;17.90;82.80;;;;;;5050553;28;20495;-68
2021/08/27 08:57:22;;;;;;;3.70;1.52;;;17.70;83.10;;;;;;5050824;28;20170;-67
2021/08/27 08:59:48;;;;;;;2.25;1.40;;;17.40;83.70;;;;;;5051069;28;20029;-67
2021/08/27 09:02:14;;;;;;;4.68;1.50;;;17.20;84.20;;;;;;5051490;28;20504;-67
2021/08/27 09:04:39;;;;;;;3.63;1.30;;;17.10;84.70;;;;;;5050438;28;20029;-68
2021/08/27 09:07:05;;;;;;;4.75;1.13;;;17.00;84.70;;;;;;5050951;28;20032;-67
2021/08/27 09:09:33;;;;;;;3.88;1.02;;;17.40;85.30;;;;;;5048379;28;20040;-68
2021/08/27 09:12:00;;;;;;;3.45;1.15;;;17.50;85.80;;;;;;5050237;28;20013;-67
2021/08/27 09:14:30;;;;;;;4.80;1.38;;;17.50;85.50;;;;;;5050974;28;20028;-68
2021/08/27 09:17:04;;;;;;;3.63;1.10;;;17.50;85.40;;;;;;5049797;28;20029;-67
2021/08/27 09:19:49;;;;;;;3.85;1.10;;;17.40;84.70;;;;;;5050715;28;20025;-68
2021/08/27 09:22:14;;;;;;;1.10;0.82;;;17.20;84.30;;;;;;5063372;28;20021;-68
2021/08/27 09:24:40;;;;;;;4.07;1.10;;;17.20;84.70;;;;;;5050548;28;20045;-68
2021/08/27 09:27:07;;;;;;;2.63;0.98;;;17.60;85.70;;;;;;5050991;28;20074;-68
2021/08/27 09:29:32;;;;;;;2.92;1.10;;;17.80;85.50;;;;;;5049591;28;20021;-68
2021/08/27 09:31:58;;;;;;;1.33;0.98;;;17.60;84.50;;;;;;5050754;28;20028;-67
2021/08/27 09:34:28;;;;;;;3.30;0.90;;;17.50;84.80;;;;;;5050849;28;20052;-68
2021/08/27 09:36:58;;;;;;;2.63;0.90;;;17.40;84.20;;;;;;5050407;28;20021;-67
2021/08/27 09:39:34;;;;;;;4.50;1.10;;;17.20;84.50;;;;;;5051026;28;20465;-67
2021/08/27 09:42:01;;;;;;;1.50;1.00;;;17.00;84.10;;;;;;5050995;28;20504;-68
2021/08/27 09:44:26;;;;;;;3.60;1.00;;;16.80;84.10;;;;;;5050590;28;20032;-67
2021/08/27 09:46:52;;;;;;;3.13;1.17;;;16.70;84.00;;;;;;5050532;28;20098;-67
2021/08/27 09:49:32;;;;;;;1.42;1.05;;;16.60;84.70;;;;;;5050703;28;20409;-67
2021/08/27 09:52:03;;;;;;;2.65;1.40;;;16.50;85.00;;;;;;5050631;28;20037;-67
2021/08/27 09:54:40;;;;;;;3.63;1.10;;;16.40;84.80;;;;;;5069889;28;20445;-67
2021/08/27 09:57:12;;;;;;;2.80;1.15;;;16.40;85.00;;;;;;5055083;28;20372;-67
2021/08/27 09:59:40;;;;;;;3.28;1.20;;;16.40;85.30;;;;;;5054241;28;20499;-67
2021/08/27 10:02:08;;;;;;;1.65;1.00;;;16.30;85.40;;;;;;5055186;28;20053;-67
2021/08/27 10:04:35;;;;;;;1.77;1.10;;;16.30;85.30;;;;;;5050532;28;20134;-67
2021/08/27 10:07:00;;;;;;;2.97;0.90;;;16.10;84.90;;;;;;5051036;28;20024;-67
2021/08/27 10:09:45;;;;;;;1.60;1.13;;;16.00;85.10;;;;;;5050723;28;20037;-67
2021/08/27 10:12:13;;;;;;;2.67;1.30;;;15.90;85.30;;;;;;5050777;28;20025;-67
2021/08/27 10:14:39;;;;;;;4.63;1.30;;;15.90;85.70;;;;;;5050586;28;20469;-67
2021/08/27 10:17:05;;;;;;;1.98;1.00;;;15.80;85.80;;;;;;5050904;28;20520;-67
2021/08/27 10:19:33;;;;;;;5.45;1.40;;;15.70;85.60;;;;;;5050478;28;20057;-67
2021/08/27 10:21:59;;;;;;;2.60;1.17;;;15.50;85.50;;;;;;5050467;28;20031;-67
2021/08/27 10:24:25;;;;;;;4.72;1.30;;;15.50;86.20;;;;;;5050563;28;20032;-67
2021/08/27 10:26:51;;;;;;;3.50;1.35;;;15.40;86.40;;;;;;5050341;28;20035;-67
2021/08/27 10:29:18;;;;;;;2.22;1.20;;;15.40;86.90;;;;;;5050411;28;20078;-67
2021/08/27 10:31:46;;;;;;;4.55;1.40;;;15.40;86.90;;;;;;5050826;28;20025;-67
2021/08/27 10:34:13;;;;;;;3.80;1.63;;;15.50;87.20;;;;;;5050431;28;20036;-65
2021/08/27 10:36:41;;;;;;;4.65;1.63;;;15.70;87.50;;;;;;5050109;28;20029;-65
2021/08/27 10:39:06;;;;;;;2.30;1.23;;;15.80;87.50;;;;;;5050415;28;20036;-65
2021/08/27 10:41:32;;;;;;;3.13;1.27;;;16.00;87.70;;;;;;5050452;28;20029;-65
2021/08/27 10:44:02;;;;;;;4.35;1.20;;;16.30;87.40;;;;;;5053199;28;20025;-65
2021/08/27 10:46:46;;;;;;;5.95;1.33;;;16.40;87.20;;;;;;5053815;28;20032;-65
2021/08/27 10:49:16;;;;;;;3.42;1.45;;;16.60;87.00;;;;;;5053974;28;20025;-65
2021/08/27 10:51:47;;;;;;;3.10;1.27;;;16.60;86.70;;;;;;5058667;28;20028;-65
2021/08/27 10:54:14;;;;;;;4.35;1.30;;;16.70;86.50;;;;;;5073815;28;20025;-65
2021/08/27 10:56:44;;;;;;;2.67;1.20;;;16.70;86.10;;;;;;5061447;28;20017;-65
2021/08/27 10:59:12;;;;;;;4.05;1.15;;;16.60;85.80;;;;;;5061763;28;20362;-65
2021/08/27 11:01:59;;;;;;;9.68;6.90;;;16.50;85.70;;;;;;5062328;28;20489;-65
2021/08/27 11:04:29;;;;;;;3.28;1.60;;;16.50;86.00;;;;;;5034354;28;20029;-65
2021/08/27 11:07:12;;;;;;;26.63;16.50;;;16.40;86.10;;;;;;5053751;28;20048;-65
2021/08/27 11:09:38;;;;;;;8.15;4.20;;;16.40;86.30;;;;;;5053647;28;20404;-65
2021/08/27 11:12:16;;;;;;;3.13;1.50;;;16.40;86.20;;;;;;5049107;28;20017;-66
2021/08/27 11:14:43;;;;;;;2.50;1.17;;;16.40;85.80;;;;;;5047374;28;20036;-65
2021/08/27 11:17:11;;;;;;;6.50;1.83;;;16.40;85.70;;;;;;5053826;28;20025;-65
2021/08/27 11:19:40;;;;;;;3.35;1.45;;;16.30;86.00;;;;;;5052504;28;20033;-65
2021/08/27 11:22:11;;;;;;;2.13;1.20;;;16.40;85.90;;;;;;5049276;28;20489;-65
2021/08/27 11:25:01;;;;;;;2.45;1.48;;;16.40;85.60;;;;;;5069835;22;20754;-68
2021/08/27 11:27:27;;;;;;;3.08;1.38;;;16.50;85.80;;;;;;5036316;28;20037;-67
2021/08/27 11:29:53;;;;;;;2.72;0.90;;;16.60;85.80;;;;;;5059323;28;20494;-66
2021/08/27 11:32:28;;;;;;;2.10;1.00;;;16.80;85.70;;;;;;5053560;28;20508;-64
2021/08/27 11:35:05;;;;;;;1.25;1.00;;;16.90;85.50;;;;;;5052215;28;20043;-68
2021/08/27 11:37:33;;;;;;;3.55;1.35;;;17.00;85.30;;;;;;5053828;28;20087;-68
2021/08/27 11:40:00;;;;;;;1.10;0.77;;;17.10;85.30;;;;;;5043337;28;20458;-68
2021/08/27 11:42:26;;;;;;;45.58;33.28;;;17.20;84.60;;;;;;5035597;28;20029;-68
2021/08/27 11:45:05;;;;;;;2.35;1.33;;;17.20;84.40;;;;;;5052691;28;20050;-68
2021/08/27 11:47:39;;;;;;;2.70;1.17;;;17.20;83.80;;;;;;5053392;28;20087;-68
2021/08/27 11:50:08;;;;;;;3.25;1.10;;;17.20;83.60;;;;;;5035197;28;20025;-68
2021/08/27 11:52:35;;;;;;;1.67;1.17;;;17.20;83.70;;;;;;5061050;28;20028;-67
2021/08/27 11:55:05;;;;;;;4.20;1.23;;;17.20;83.20;;;;;;5051810;28;20108;-68
2021/08/27 11:57:31;;;;;;;2.00;1.00;;;17.10;82.90;;;;;;5052576;28;20338;-68
2021/08/27 12:00:11;;;;;;;3.67;1.05;;;17.00;83.50;;;;;;5058762;28;20027;-68
2021/08/27 12:02:37;;;;;;;3.25;1.27;;;16.90;82.50;;;;;;5073000;28;20052;-67
2021/08/27 12:05:06;;;;;;;3.67;1.20;;;16.90;83.00;;;;;;5072407;28;20365;-68
2021/08/27 12:07:34;;;;;;;7.53;1.30;;;16.90;83.00;;;;;;5054787;28;20035;-68
2021/08/27 12:10:13;;;;;;;2.60;1.00;;;16.90;82.90;;;;;;5054639;28;20037;-65
2021/08/27 12:12:43;;;;;;;3.78;1.08;;;16.80;82.80;;;;;;5056840;28;20370;-68
2021/08/27 12:15:12;;;;;;;2.15;1.08;;;16.80;83.10;;;;;;5051969;28;20025;-67
2021/08/27 12:17:38;;;;;;;1.38;1.10;;;16.80;83.10;;;;;;5052646;28;20023;-68
2021/08/27 12:20:07;;;;;;;3.10;1.25;;;16.80;82.80;;;;;;5051645;28;20071;-68
2021/08/27 12:22:42;;;;;;;3.20;1.25;;;16.70;82.30;;;;;;5052180;28;20200;-69
2021/08/27 12:25:08;;;;;;;1.85;1.08;;;16.70;82.40;;;;;;5051954;28;20033;-68
2021/08/27 12:27:47;;;;;;;1.67;1.40;;;16.60;82.40;;;;;;5063486;28;20031;-68
2021/08/27 12:30:13;;;;;;;2.20;0.85;;;16.70;82.60;;;;;;5072418;28;20085;-67
2021/08/27 12:32:42;;;;;;;2.63;1.15;;;16.70;82.90;;;;;;5054494;28;20328;-68
2021/08/27 12:35:09;;;;;;;1.50;1.10;;;16.80;82.80;;;;;;5071921;28;20021;-68
2021/08/27 12:37:39;;;;;;;3.45;1.40;;;16.90;82.50;;;;;;5053959;28;20020;-67
2021/08/27 12:40:14;;;;;;;4.55;0.90;;;17.00;81.70;;;;;;5072234;28;20396;-67
2021/08/27 12:42:59;;;;;;;4.70;1.00;;;16.90;81.10;;;;;;5040941;28;20041;-69
2021/08/27 12:45:25;;;;;;;1.55;0.90;;;17.00;81.20;;;;;;5033578;28;20174;-68
2021/08/27 12:48:03;;;;;;;1.23;1.00;;;17.00;82.10;;;;;;5051989;28;20508;-66
2021/08/27 12:50:29;;;;;;;2.60;0.80;;;17.10;81.40;;;;;;5052047;28;20032;-68